createdAt,value
2024-04-19T00:01:57.218Z,3.60
2024-04-19T00:04:19.718Z,3.40
2024-04-19T00:06:42.402Z,3.20
2024-04-19T00:09:05.264Z,3.47
2024-04-19T00:11:27.790Z,3.80
2024-04-19T00:13:50.468Z,3.83
2024-04-19T00:16:12.876Z,4.00
2024-04-19T00:18:35.983Z,3.80
2024-04-19T00:20:58.587Z,4.23
2024-04-19T00:23:20.990Z,4.00
2024-04-19T00:25:43.577Z,3.90
2024-04-19T00:28:06.197Z,3.87
2024-04-19T00:30:28.757Z,4.30
2024-04-19T00:33:05.104Z,3.90
2024-04-19T00:35:33.547Z,4.60
2024-04-19T00:37:55.969Z,4.00
2024-04-19T00:40:27.479Z,4.30
2024-04-19T00:42:54.165Z,3.97
2024-04-19T00:45:43.134Z,3.90
2024-04-19T00:48:22.334Z,4.13
2024-04-19T00:50:49.911Z,4.43
2024-04-19T00:53:13.391Z,3.80
2024-04-19T00:55:36.726Z,4.07
2024-04-19T00:58:00.041Z,4.67
2024-04-19T01:00:23.012Z,4.60
2024-04-19T01:02:46.135Z,4.30
2024-04-19T01:05:14.703Z,4.33
2024-04-19T01:07:37.131Z,4.30
2024-04-19T01:09:59.677Z,4.30
2024-04-19T01:12:22.226Z,4.00
2024-04-19T01:14:44.721Z,4.43
2024-04-19T01:17:07.150Z,4.20
2024-04-19T01:19:29.576Z,4.20
2024-04-19T01:21:52.132Z,4.30
2024-04-19T01:24:30.998Z,3.50
2024-04-19T01:26:53.524Z,4.50
2024-04-19T01:29:15.956Z,4.10
2024-04-19T01:31:38.692Z,4.70
2024-04-19T01:34:01.439Z,4.80
2024-04-19T01:36:23.996Z,4.43
2024-04-19T01:38:46.482Z,5.10
2024-04-19T01:41:09.203Z,4.30
2024-04-19T01:43:31.638Z,4.77
2024-04-19T01:45:54.143Z,4.00
2024-04-19T01:48:16.678Z,4.63
2024-04-19T01:50:39.153Z,4.43
2024-04-19T01:53:01.613Z,4.60
2024-04-19T01:55:24.433Z,4.30
2024-04-19T01:57:46.878Z,4.70
2024-04-19T02:00:09.808Z,4.20
2024-04-19T02:02:35.349Z,4.47
2024-04-19T02:04:59.601Z,4.20
2024-04-19T02:07:22.041Z,4.97
2024-04-19T02:09:44.504Z,4.67
2024-04-19T02:12:07.342Z,4.73
2024-04-19T02:14:31.415Z,4.40
2024-04-19T02:16:53.883Z,4.33
2024-04-19T02:19:16.346Z,4.70
2024-04-19T02:21:39.093Z,4.83
2024-04-19T02:24:03.601Z,4.70
2024-04-19T02:26:26.060Z,5.30
2024-04-19T02:29:07.104Z,5.20
2024-04-19T02:31:29.562Z,5.43
2024-04-19T02:33:52.603Z,6.10
2024-04-19T02:36:16.891Z,6.73
2024-04-19T02:38:39.641Z,6.67
2024-04-19T02:41:03.152Z,6.47
2024-04-19T02:43:25.689Z,6.30
2024-04-19T02:45:58.112Z,5.60
2024-04-19T02:48:20.995Z,5.47
2024-04-19T02:50:43.448Z,4.77
2024-04-19T02:53:10.420Z,4.60
2024-04-19T02:55:32.836Z,4.50
2024-04-19T02:57:55.298Z,4.73
2024-04-19T03:00:52.816Z,4.70
2024-04-19T03:03:15.434Z,4.63
2024-04-19T03:05:37.959Z,5.37
2024-04-19T03:08:01.339Z,5.97
2024-04-19T03:10:27.072Z,6.00
2024-04-19T03:12:49.671Z,6.23
2024-04-19T03:15:12.208Z,6.80
2024-04-19T03:17:34.798Z,7.47
2024-04-19T03:19:57.275Z,7.60
2024-04-19T03:22:19.782Z,8.50
2024-04-19T03:24:42.473Z,7.53
2024-04-19T03:27:05.210Z,7.67
2024-04-19T03:29:50.824Z,7.83
2024-04-19T03:32:13.243Z,8.43
2024-04-19T03:34:35.897Z,8.83
2024-04-19T03:36:58.340Z,8.90
2024-04-19T03:39:20.817Z,9.20
2024-04-19T03:41:44.840Z,8.57
2024-04-19T03:44:26.161Z,8.97
2024-04-19T03:46:48.668Z,8.87
2024-04-19T03:49:11.170Z,9.07
2024-04-19T03:51:33.661Z,9.03
2024-04-19T03:53:56.163Z,8.93
2024-04-19T03:56:18.588Z,8.97
2024-04-19T03:58:41.026Z,9.47
2024-04-19T04:01:06.860Z,9.47
2024-04-19T04:03:29.414Z,9.37
2024-04-19T04:05:53.333Z,9.30
2024-04-19T04:08:15.783Z,10.13
2024-04-19T04:10:38.637Z,9.70
2024-04-19T04:13:01.189Z,11.40
2024-04-19T04:15:23.999Z,10.37
2024-04-19T04:17:46.546Z,10.30
2024-04-19T04:20:09.638Z,10.30
2024-04-19T04:22:33.017Z,10.23
2024-04-19T04:24:55.445Z,10.77
2024-04-19T04:27:17.909Z,11.30
2024-04-19T04:29:40.369Z,10.40
2024-04-19T04:32:02.882Z,10.27
2024-04-19T04:34:25.468Z,11.40
2024-04-19T04:36:48.076Z,11.37
2024-04-19T04:39:10.659Z,10.93
2024-04-19T04:41:37.743Z,12.37
2024-04-19T04:44:00.153Z,10.60
2024-04-19T04:46:24.222Z,11.00
2024-04-19T04:48:46.663Z,12.43
2024-04-19T04:51:09.832Z,11.90
2024-04-19T04:53:32.477Z,11.17
2024-04-19T04:55:54.910Z,11.27
2024-04-19T04:58:17.391Z,11.10
2024-04-19T05:00:39.971Z,11.50
2024-04-19T05:03:06.857Z,10.63
2024-04-19T05:05:30.029Z,10.63
2024-04-19T05:07:52.811Z,10.53
2024-04-19T05:10:15.315Z,10.67
2024-04-19T05:12:38.114Z,11.63
2024-04-19T05:15:00.706Z,10.30
2024-04-19T05:17:23.183Z,11.57
2024-04-19T05:19:45.837Z,11.80
2024-04-19T05:22:08.348Z,11.77
2024-04-19T05:24:30.808Z,11.40
2024-04-19T05:26:54.545Z,10.60
2024-04-19T05:29:16.956Z,11.10
2024-04-19T05:31:41.809Z,10.13
2024-04-19T05:34:04.274Z,10.47
2024-04-19T05:36:26.764Z,11.00
2024-04-19T05:38:49.211Z,9.57
2024-04-19T05:41:11.644Z,10.13
2024-04-19T05:43:34.064Z,10.60
2024-04-19T05:45:56.597Z,9.37
2024-04-19T05:48:21.733Z,8.83
2024-04-19T05:50:44.938Z,8.77
2024-04-19T05:53:07.500Z,8.30
2024-04-19T05:55:29.952Z,7.83
2024-04-19T05:57:52.505Z,7.80
2024-04-19T06:00:15.093Z,7.90
2024-04-19T06:02:37.639Z,7.23
2024-04-19T06:05:00.127Z,6.63
2024-04-19T06:07:24.232Z,7.30
2024-04-19T06:09:46.974Z,7.57
2024-04-19T06:12:09.786Z,7.60
2024-04-19T06:14:32.210Z,6.70
2024-04-19T06:16:54.702Z,6.53
2024-04-19T06:19:17.168Z,6.67
2024-04-19T06:21:39.701Z,7.03
2024-04-19T06:24:02.167Z,6.67
2024-04-19T06:26:24.590Z,6.07
2024-04-19T06:28:47.410Z,6.40
2024-04-19T06:31:10.925Z,6.57
2024-04-19T06:33:33.475Z,5.60
2024-04-19T06:35:59.384Z,6.13
2024-04-19T06:38:21.817Z,5.10
2024-04-19T06:40:46.089Z,5.23
2024-04-19T06:43:08.603Z,5.20
2024-04-19T06:45:31.121Z,4.97
2024-04-19T06:47:53.769Z,4.70
2024-04-19T06:50:16.464Z,4.90
2024-04-19T06:52:38.909Z,4.70
2024-04-19T06:55:01.441Z,5.03
2024-04-19T06:57:23.920Z,4.87
2024-04-19T06:59:46.627Z,4.70
2024-04-19T07:02:09.132Z,5.00
2024-04-19T07:04:31.810Z,4.40
2024-04-19T07:06:54.409Z,4.67
2024-04-19T07:09:17.267Z,5.03
2024-04-19T07:11:39.837Z,4.80
2024-04-19T07:14:02.332Z,4.43
2024-04-19T07:16:24.871Z,5.30
2024-04-19T07:18:47.835Z,4.90
2024-04-19T07:21:10.340Z,4.97
2024-04-19T07:23:32.811Z,4.67
2024-04-19T07:25:55.337Z,4.67
2024-04-19T07:28:18.175Z,4.57
2024-04-19T07:30:40.721Z,5.47
2024-04-19T07:33:03.225Z,5.40
2024-04-19T07:35:25.669Z,4.67
2024-04-19T07:37:48.137Z,4.97
2024-04-19T07:40:10.871Z,4.67
2024-04-19T07:42:34.459Z,4.77
2024-04-19T07:44:57.009Z,5.43
2024-04-19T07:47:19.457Z,4.37
2024-04-19T07:49:41.925Z,4.83
2024-04-19T07:52:04.676Z,5.00
2024-04-19T07:54:27.153Z,5.10
2024-04-19T07:56:49.772Z,4.67
2024-04-19T07:59:12.215Z,4.63
2024-04-19T08:01:34.728Z,4.47
2024-04-19T08:03:58.345Z,5.03
2024-04-19T08:06:21.685Z,5.13
2024-04-19T08:08:47.141Z,5.03
2024-04-19T08:11:09.705Z,4.63
2024-04-19T08:13:32.206Z,4.87
2024-04-19T08:15:54.773Z,4.63
2024-04-19T08:18:18.482Z,5.57
2024-04-19T08:20:41.212Z,4.87
2024-04-19T08:23:04.125Z,5.57
2024-04-19T08:25:26.661Z,5.00
2024-04-19T08:27:49.191Z,5.17
2024-04-19T08:30:14.979Z,5.33
2024-04-19T08:32:37.642Z,4.90
2024-04-19T08:35:00.652Z,5.60
2024-04-19T08:37:24.658Z,6.17
2024-04-19T08:39:48.268Z,5.33
2024-04-19T08:42:11.436Z,6.67
2024-04-19T08:44:35.252Z,5.43
2024-04-19T08:46:58.438Z,5.07
2024-04-19T08:49:21.590Z,5.30
2024-04-19T08:52:00.418Z,5.27
2024-04-19T08:54:32.762Z,4.57
2024-04-19T08:56:56.298Z,5.13
2024-04-19T08:59:20.401Z,4.37
2024-04-19T09:01:43.879Z,4.50
2024-04-19T09:04:06.605Z,4.43
2024-04-19T09:06:29.545Z,4.57
2024-04-19T09:08:52.369Z,4.00
2024-04-19T09:11:16.912Z,4.50
2024-04-19T09:13:39.632Z,3.90
2024-04-19T09:16:02.116Z,3.90
2024-04-19T09:18:26.080Z,3.93
2024-04-19T09:20:49.003Z,4.10
2024-04-19T09:23:13.704Z,3.50
2024-04-19T09:25:36.186Z,3.53
2024-04-19T09:27:59.301Z,3.50
2024-04-19T09:30:21.760Z,3.77
2024-04-19T09:32:44.346Z,3.30
2024-04-19T09:35:07.323Z,3.80
2024-04-19T09:37:31.343Z,3.93
2024-04-19T09:39:54.374Z,3.30
2024-04-19T09:42:17.721Z,3.70
2024-04-19T09:44:42.237Z,3.23
2024-04-19T09:47:06.166Z,4.10
2024-04-19T09:49:31.302Z,3.43
2024-04-19T09:51:54.370Z,3.70
2024-04-19T09:54:21.521Z,3.53
2024-04-19T09:57:00.820Z,3.23
2024-04-19T09:59:25.277Z,3.43
2024-04-19T10:01:48.100Z,4.07
2024-04-19T10:04:11.419Z,5.00
2024-04-19T10:06:39.685Z,3.80
2024-04-19T10:09:05.843Z,3.60
2024-04-19T10:11:28.935Z,4.47
2024-04-19T10:13:51.481Z,4.33
2024-04-19T10:16:14.747Z,4.47
2024-04-19T10:18:38.111Z,4.60
2024-04-19T10:21:01.304Z,4.40
2024-04-19T10:23:23.969Z,4.27
2024-04-19T10:25:49.657Z,3.97
2024-04-19T10:28:12.093Z,4.00
2024-04-19T10:30:37.030Z,4.13
2024-04-19T10:33:00.600Z,3.60
2024-04-19T10:35:23.046Z,3.83
2024-04-19T10:37:45.548Z,4.33
2024-04-19T10:40:08.225Z,3.97
2024-04-19T10:42:30.678Z,3.53
2024-04-19T10:44:53.494Z,3.70
2024-04-19T10:47:17.447Z,3.33
2024-04-19T10:49:40.995Z,3.37
2024-04-19T10:52:03.571Z,3.50
2024-04-19T10:54:26.935Z,3.20
2024-04-19T10:56:49.418Z,3.30
2024-04-19T10:59:11.897Z,3.43
2024-04-19T11:01:34.579Z,3.30
2024-04-19T11:03:57.832Z,3.70
2024-04-19T11:06:20.409Z,3.37
2024-04-19T11:08:43.612Z,3.30
2024-04-19T11:11:06.198Z,3.17
2024-04-19T11:13:29.345Z,3.60
2024-04-19T11:15:58.010Z,3.60
2024-04-19T11:18:21.738Z,3.40
2024-04-19T11:20:50.575Z,3.30
2024-04-19T11:23:18.455Z,3.60
2024-04-19T11:25:42.432Z,3.27
2024-04-19T11:28:05.687Z,3.33
2024-04-19T11:30:29.859Z,3.30
2024-04-19T11:32:52.423Z,3.30
2024-04-19T11:35:14.979Z,3.60
2024-04-19T11:37:37.432Z,3.43
2024-04-19T11:39:59.919Z,3.30
2024-04-19T11:42:23.463Z,3.20
2024-04-19T11:44:46.014Z,3.33
2024-04-19T11:47:09.657Z,2.73
2024-04-19T11:49:32.370Z,3.40
2024-04-19T11:51:54.984Z,3.20
2024-04-19T11:54:19.165Z,3.00
2024-04-19T11:56:41.890Z,3.57
2024-04-19T11:59:04.400Z,3.10
2024-04-19T12:01:27.816Z,3.00
2024-04-19T12:03:50.707Z,3.27
2024-04-19T12:06:13.345Z,3.17
2024-04-19T12:08:36.296Z,2.83
2024-04-19T12:10:58.932Z,3.20
2024-04-19T12:14:07.960Z,3.10
2024-04-19T12:16:32.326Z,2.93
2024-04-19T12:18:46.958Z,3.03
2024-04-19T12:21:11.115Z,3.23
2024-04-19T12:25:57.493Z,3.70
2024-04-19T12:28:25.019Z,3.57
2024-04-19T12:30:47.669Z,3.67
2024-04-19T12:33:10.446Z,3.30
2024-04-19T12:35:36.182Z,2.90
2024-04-19T12:38:01.552Z,2.80
2024-04-19T12:40:25.089Z,2.87
2024-04-19T12:42:47.575Z,2.77
2024-04-19T12:45:11.312Z,3.20
2024-04-19T12:47:36.935Z,3.00
2024-04-19T12:49:59.957Z,2.47
2024-04-19T12:52:24.520Z,2.30
2024-04-19T12:54:47.059Z,1.83
2024-04-19T12:57:09.874Z,2.10
2024-04-19T12:59:32.358Z,2.60
2024-04-19T13:02:11.779Z,2.23
2024-04-19T13:04:38.655Z,2.10
2024-04-19T13:07:03.501Z,2.10
2024-04-19T13:09:29.253Z,2.33
2024-04-19T13:11:52.180Z,2.57
2024-04-19T13:14:18.172Z,2.07
2024-04-19T13:16:45.425Z,2.10
2024-04-19T13:19:09.883Z,2.10
2024-04-19T13:21:33.516Z,1.80
2024-04-19T13:24:01.598Z,2.33
2024-04-19T13:26:26.237Z,1.30
2024-04-19T13:28:58.078Z,1.20
2024-04-19T13:31:23.282Z,1.13
2024-04-19T13:33:50.617Z,1.30
2024-04-19T13:36:13.280Z,1.43
2024-04-19T13:38:42.853Z,1.40
2024-04-19T13:41:11.207Z,1.57
2024-04-19T13:43:33.781Z,1.63
2024-04-19T13:45:59.531Z,1.33
2024-04-19T13:48:23.687Z,1.53
2024-04-19T13:50:46.244Z,1.20
2024-04-19T13:53:08.733Z,1.40
2024-04-19T13:55:31.274Z,1.50
2024-04-19T13:57:53.823Z,1.80
2024-04-19T14:00:16.569Z,1.70
2024-04-19T14:02:39.831Z,1.73
2024-04-19T14:05:04.440Z,1.90
2024-04-19T14:07:27.175Z,2.20
2024-04-19T14:09:49.720Z,1.70
2024-04-19T14:12:12.371Z,1.20
2024-04-19T14:14:34.964Z,1.20
2024-04-19T14:16:57.663Z,1.20
2024-04-19T14:19:23.663Z,1.20
2024-04-19T14:21:48.838Z,1.53
2024-04-19T14:24:12.417Z,1.60
2024-04-19T14:26:35.309Z,1.60
2024-04-19T14:29:00.409Z,1.40
2024-04-19T14:31:23.595Z,1.27
2024-04-19T14:33:46.424Z,1.37
2024-04-19T14:36:09.326Z,1.17
2024-04-19T14:38:32.117Z,1.20
2024-04-19T14:40:54.817Z,1.40
2024-04-19T14:43:17.301Z,1.50
2024-04-19T14:45:39.822Z,1.50
2024-04-19T14:48:02.509Z,2.00
2024-04-19T14:50:25.045Z,1.77
2024-04-19T14:52:53.346Z,1.70
2024-04-19T14:55:23.009Z,1.60
2024-04-19T14:57:45.604Z,1.90
2024-04-19T15:00:08.707Z,2.10
2024-04-19T15:02:31.197Z,2.37
2024-04-19T15:04:53.794Z,2.43
2024-04-19T15:07:17.399Z,1.53
2024-04-19T15:09:40.077Z,2.73
2024-04-19T15:12:02.559Z,2.90
2024-04-19T15:14:25.975Z,2.97
2024-04-19T15:16:50.352Z,2.27
2024-04-19T15:19:13.051Z,2.50
2024-04-19T15:21:35.577Z,2.00
2024-04-19T15:24:02.274Z,1.77
2024-04-19T15:26:25.068Z,2.30
2024-04-19T15:28:49.704Z,1.60
2024-04-19T15:31:12.667Z,2.20
2024-04-19T15:33:36.318Z,2.17
2024-04-19T15:35:59.088Z,3.07
2024-04-19T15:38:21.561Z,2.10
2024-04-19T15:40:45.147Z,3.57
2024-04-19T15:43:07.932Z,3.07
2024-04-19T15:45:30.410Z,2.50
2024-04-19T15:47:53.089Z,1.60
2024-04-19T15:50:16.024Z,2.50
2024-04-19T15:52:38.644Z,1.67
2024-04-19T15:55:01.198Z,2.30
2024-04-19T15:57:23.749Z,3.73
2024-04-19T15:59:46.189Z,2.07
2024-04-19T16:02:08.798Z,1.77
2024-04-19T16:04:31.612Z,2.03
2024-04-19T16:06:56.129Z,1.80
2024-04-19T16:09:18.612Z,1.80
2024-04-19T16:11:41.063Z,2.07
2024-04-19T16:14:03.843Z,1.80
2024-04-19T16:16:26.375Z,1.90
2024-04-19T16:18:50.027Z,1.70
2024-04-19T16:21:13.684Z,2.20
2024-04-19T16:23:47.859Z,2.10
2024-04-19T16:26:12.555Z,2.03
2024-04-19T16:28:35.104Z,2.13
2024-04-19T16:31:00.523Z,1.70
2024-04-19T16:33:23.398Z,1.80
2024-04-19T16:35:56.481Z,1.73
2024-04-19T16:38:28.028Z,1.80
2024-04-19T16:40:51.401Z,2.60
2024-04-19T16:43:14.064Z,2.30
2024-04-19T16:45:36.611Z,2.30
2024-04-19T16:47:59.622Z,2.17
2024-04-19T16:50:22.046Z,1.70
2024-04-19T16:52:44.789Z,1.80
2024-04-19T16:55:07.317Z,1.70
2024-04-19T16:57:30.760Z,2.00
2024-04-19T16:59:53.347Z,2.50
2024-04-19T17:02:15.895Z,1.67
2024-04-19T17:04:39.914Z,1.50
2024-04-19T17:07:02.817Z,1.40
2024-04-19T17:09:25.638Z,1.43
2024-04-19T17:11:51.589Z,1.70
2024-04-19T17:14:14.134Z,1.93
2024-04-19T17:16:36.626Z,2.20
2024-04-19T17:18:59.062Z,2.10
2024-04-19T17:21:21.608Z,1.40
2024-04-19T17:23:44.050Z,1.93
2024-04-19T17:26:06.486Z,1.40
2024-04-19T17:28:29.081Z,1.77
2024-04-19T17:30:52.635Z,1.87
2024-04-19T17:33:15.302Z,1.83
2024-04-19T17:35:38.863Z,1.60
2024-04-19T17:38:01.842Z,1.93
2024-04-19T17:40:25.703Z,1.70
2024-04-19T17:42:48.438Z,1.73
2024-04-19T17:45:10.887Z,1.73
2024-04-19T17:47:33.385Z,1.50
2024-04-19T17:49:57.366Z,1.67
2024-04-19T17:52:20.866Z,1.50
2024-04-19T17:54:47.628Z,1.97
2024-04-19T17:57:10.783Z,1.60
2024-04-19T17:59:33.213Z,1.83
2024-04-19T18:01:57.503Z,2.23
2024-04-19T18:04:20.005Z,1.80
2024-04-19T18:06:56.071Z,1.60
2024-04-19T18:09:21.392Z,1.90
2024-04-19T18:11:43.835Z,1.93
2024-04-19T18:14:06.193Z,1.87
2024-04-19T18:16:28.644Z,1.90
2024-04-19T18:18:51.137Z,2.13
2024-04-19T18:21:13.576Z,1.80
2024-04-19T18:23:36.321Z,2.10
2024-04-19T18:25:59.026Z,2.27
2024-04-19T18:28:21.547Z,2.10
2024-04-19T18:30:44.356Z,2.40
2024-04-19T18:33:07.245Z,2.00
2024-04-19T18:35:32.000Z,2.60
2024-04-19T18:37:54.876Z,1.83
2024-04-19T18:40:17.307Z,2.20
2024-04-19T18:42:41.951Z,2.13
2024-04-19T18:45:17.359Z,2.40
2024-04-19T18:47:39.895Z,2.47
2024-04-19T18:50:02.328Z,2.77
2024-04-19T18:52:24.797Z,2.50
2024-04-19T18:54:47.240Z,2.30
2024-04-19T18:57:10.002Z,3.00
2024-04-19T18:59:34.396Z,2.20
2024-04-19T19:01:56.861Z,2.60
2024-04-19T19:04:19.383Z,2.70
2024-04-19T19:06:41.883Z,3.33
2024-04-19T19:09:04.583Z,3.17
2024-04-19T19:11:28.054Z,2.70
2024-04-19T19:13:50.697Z,2.93
2024-04-19T19:16:13.911Z,3.07
2024-04-19T19:18:36.444Z,3.37
2024-04-19T19:20:59.107Z,3.93
2024-04-19T19:23:22.610Z,2.90
2024-04-19T19:25:45.426Z,3.17
2024-04-19T19:28:07.896Z,3.20
2024-04-19T19:30:30.459Z,3.23
2024-04-19T19:32:52.967Z,3.33
2024-04-19T19:35:15.604Z,3.23
2024-04-19T19:37:37.999Z,3.90
2024-04-19T19:40:02.066Z,3.20
2024-04-19T19:42:24.745Z,3.63
2024-04-19T19:44:49.967Z,3.33
2024-04-19T19:47:12.426Z,3.30
2024-04-19T19:49:39.476Z,3.97
2024-04-19T19:52:02.834Z,3.17
2024-04-19T19:54:25.756Z,4.17
2024-04-19T19:56:49.222Z,3.77
2024-04-19T19:59:31.528Z,3.77
2024-04-19T20:02:12.581Z,4.03
2024-04-19T20:04:53.533Z,4.03
2024-04-19T20:07:15.986Z,4.20
2024-04-19T20:09:38.430Z,3.60
2024-04-19T20:12:00.852Z,3.33
2024-04-19T20:14:23.304Z,3.93
2024-04-19T20:16:45.771Z,3.63
2024-04-19T20:19:08.424Z,4.33
2024-04-19T20:21:30.996Z,3.97
2024-04-19T20:23:53.424Z,3.70
2024-04-19T20:26:15.878Z,4.07
2024-04-19T20:28:38.619Z,4.00
2024-04-19T20:31:01.095Z,3.90
2024-04-19T20:33:23.578Z,3.17
2024-04-19T20:35:46.277Z,3.67
2024-04-19T20:38:08.945Z,3.33
2024-04-19T20:40:32.388Z,3.93
2024-04-19T20:43:06.479Z,3.30
2024-04-19T20:45:37.849Z,3.50
2024-04-19T20:48:00.495Z,3.93
2024-04-19T20:50:23.098Z,3.50
2024-04-19T20:52:49.879Z,3.30
2024-04-19T20:55:12.538Z,3.10
2024-04-19T20:57:34.984Z,3.87
2024-04-19T20:59:57.820Z,3.90
2024-04-19T21:02:20.342Z,3.30
2024-04-19T21:04:42.791Z,3.90
2024-04-19T21:07:05.410Z,4.00
2024-04-19T21:09:27.973Z,4.13
2024-04-19T21:11:50.398Z,3.33
2024-04-19T21:14:12.844Z,3.40
2024-04-19T21:16:35.437Z,3.70
2024-04-19T21:18:57.947Z,3.10
2024-04-19T21:21:20.411Z,3.53
2024-04-19T21:23:42.879Z,3.67
2024-04-19T21:26:09.520Z,3.37
2024-04-19T21:28:32.203Z,3.33
2024-04-19T21:31:02.314Z,3.63
2024-04-19T21:33:24.862Z,3.73
2024-04-19T21:35:47.463Z,3.60
2024-04-19T21:38:10.038Z,2.70
2024-04-19T21:40:32.589Z,3.10
2024-04-19T21:42:56.169Z,3.00
2024-04-19T21:45:18.741Z,3.00
2024-04-19T21:47:41.672Z,3.57
2024-04-19T21:50:04.431Z,3.60
2024-04-19T21:52:26.896Z,4.00
2024-04-19T21:54:49.326Z,3.90
2024-04-19T21:57:11.778Z,4.07
2024-04-19T21:59:34.452Z,3.43
2024-04-19T22:01:56.887Z,3.23
2024-04-19T22:04:19.462Z,3.40
2024-04-19T22:06:42.034Z,3.53
2024-04-19T22:09:04.489Z,3.30
2024-04-19T22:11:26.942Z,3.40
2024-04-19T22:13:52.004Z,4.03
2024-04-19T22:16:14.449Z,3.70
2024-04-19T22:18:36.969Z,3.60
2024-04-19T22:21:06.778Z,3.20
2024-04-19T22:23:29.219Z,3.30
2024-04-19T22:25:52.770Z,3.63
2024-04-19T22:28:15.280Z,3.80
2024-04-19T22:30:37.704Z,3.70
2024-04-19T22:33:00.557Z,3.87
2024-04-19T22:35:23.205Z,3.47
2024-04-19T22:37:45.695Z,3.67
2024-04-19T22:40:08.836Z,3.63
2024-04-19T22:42:31.347Z,3.50
2024-04-19T22:44:53.768Z,3.73
2024-04-19T22:47:16.365Z,3.23
2024-04-19T22:49:38.869Z,3.27
2024-04-19T22:52:01.343Z,3.50
2024-04-19T22:54:23.836Z,4.00
2024-04-19T22:56:46.352Z,3.33
2024-04-19T22:59:08.793Z,3.50
2024-04-19T23:01:31.409Z,3.33
2024-04-19T23:04:00.095Z,3.90
2024-04-19T23:06:24.359Z,5.17
2024-04-19T23:08:47.035Z,4.17
2024-04-19T23:11:10.521Z,3.97
2024-04-19T23:13:33.838Z,3.70
2024-04-19T23:15:56.524Z,3.67
2024-04-19T23:18:19.350Z,4.10
2024-04-19T23:20:41.972Z,3.70
2024-04-19T23:23:04.882Z,4.10
2024-04-19T23:25:27.346Z,3.50
2024-04-19T23:27:50.201Z,4.13
2024-04-19T23:30:12.864Z,3.80
2024-04-19T23:32:35.493Z,4.00
2024-04-19T23:34:58.070Z,3.93
2024-04-19T23:37:20.622Z,3.70
2024-04-19T23:39:43.138Z,3.70
2024-04-19T23:42:05.957Z,4.17
2024-04-19T23:44:28.638Z,4.20
2024-04-19T23:46:51.565Z,4.00
2024-04-19T23:49:14.080Z,3.70
2024-04-19T23:51:36.581Z,3.63
2024-04-19T23:54:04.561Z,3.70
2024-04-19T23:56:27.007Z,3.60
2024-04-19T23:58:50.440Z,3.90
